sensor_id;sensor_type;location;lat;lon;timestamp;P1;durP1;ratioP1;P2;durP2;ratioP2
44139;SDS011;29803;51.048;4.686;2024-01-07T00:02:19;27.48;;;12.40;;
44139;SDS011;29803;51.048;4.686;2024-01-07T00:04:50;24.17;;;12.15;;
44139;SDS011;29803;51.048;4.686;2024-01-07T00:07:20;24.67;;;12.63;;
44139;SDS011;29803;51.048;4.686;2024-01-07T00:09:51;27.98;;;12.82;;
44139;SDS011;29803;51.048;4.686;2024-01-07T00:12:21;25.17;;;12.60;;
44139;SDS011;29803;51.048;4.686;2024-01-07T00:14:52;24.58;;;12.35;;
44139;SDS011;29803;51.048;4.686;2024-01-07T00:17:23;27.70;;;13.32;;
44139;SDS011;29803;51.048;4.686;2024-01-07T00:19:53;25.48;;;13.25;;
44139;SDS011;29803;51.048;4.686;2024-01-07T00:22:24;23.95;;;12.48;;
44139;SDS011;29803;51.048;4.686;2024-01-07T00:24:55;25.67;;;12.70;;
44139;SDS011;29803;51.048;4.686;2024-01-07T00:27:25;24.42;;;12.27;;
44139;SDS011;29803;51.048;4.686;2024-01-07T00:29:56;22.73;;;11.43;;
44139;SDS011;29803;51.048;4.686;2024-01-07T00:32:26;24.25;;;12.57;;
44139;SDS011;29803;51.048;4.686;2024-01-07T00:34:57;23.65;;;12.57;;
44139;SDS011;29803;51.048;4.686;2024-01-07T00:37:27;25.98;;;13.23;;
44139;SDS011;29803;51.048;4.686;2024-01-07T00:39:58;23.48;;;11.88;;
44139;SDS011;29803;51.048;4.686;2024-01-07T00:42:28;26.60;;;12.73;;
44139;SDS011;29803;51.048;4.686;2024-01-07T00:44:59;26.70;;;12.38;;
44139;SDS011;29803;51.048;4.686;2024-01-07T00:47:29;24.75;;;11.70;;
44139;SDS011;29803;51.048;4.686;2024-01-07T00:49:59;25.17;;;11.75;;
44139;SDS011;29803;51.048;4.686;2024-01-07T00:52:30;25.42;;;11.50;;
44139;SDS011;29803;51.048;4.686;2024-01-07T00:55:00;24.20;;;11.88;;
44139;SDS011;29803;51.048;4.686;2024-01-07T00:57:33;26.50;;;12.95;;
44139;SDS011;29803;51.048;4.686;2024-01-07T01:00:05;23.00;;;11.38;;
44139;SDS011;29803;51.048;4.686;2024-01-07T01:02:37;21.90;;;10.98;;
44139;SDS011;29803;51.048;4.686;2024-01-07T01:05:07;25.52;;;12.27;;
44139;SDS011;29803;51.048;4.686;2024-01-07T01:07:38;20.42;;;10.80;;
44139;SDS011;29803;51.048;4.686;2024-01-07T01:10:08;22.92;;;11.20;;
44139;SDS011;29803;51.048;4.686;2024-01-07T01:12:39;25.15;;;11.40;;
44139;SDS011;29803;51.048;4.686;2024-01-07T01:15:10;26.15;;;10.93;;
44139;SDS011;29803;51.048;4.686;2024-01-07T01:17:40;24.48;;;10.35;;
44139;SDS011;29803;51.048;4.686;2024-01-07T01:20:11;29.73;;;13.15;;
44139;SDS011;29803;51.048;4.686;2024-01-07T01:22:42;21.00;;;11.10;;
44139;SDS011;29803;51.048;4.686;2024-01-07T01:25:12;24.38;;;11.55;;
44139;SDS011;29803;51.048;4.686;2024-01-07T01:27:43;22.05;;;11.15;;
44139;SDS011;29803;51.048;4.686;2024-01-07T01:30:14;23.20;;;12.65;;
44139;SDS011;29803;51.048;4.686;2024-01-07T01:32:45;24.17;;;12.52;;
44139;SDS011;29803;51.048;4.686;2024-01-07T01:35:15;24.92;;;12.40;;
44139;SDS011;29803;51.048;4.686;2024-01-07T01:37:46;27.33;;;12.82;;
44139;SDS011;29803;51.048;4.686;2024-01-07T01:40:17;29.38;;;13.10;;
44139;SDS011;29803;51.048;4.686;2024-01-07T01:42:47;30.88;;;14.48;;
44139;SDS011;29803;51.048;4.686;2024-01-07T01:45:19;36.13;;;15.00;;
44139;SDS011;29803;51.048;4.686;2024-01-07T01:47:49;33.90;;;16.05;;
44139;SDS011;29803;51.048;4.686;2024-01-07T01:50:20;35.60;;;15.23;;
44139;SDS011;29803;51.048;4.686;2024-01-07T01:52:50;33.78;;;16.55;;
44139;SDS011;29803;51.048;4.686;2024-01-07T01:55:22;37.28;;;16.67;;
44139;SDS011;29803;51.048;4.686;2024-01-07T01:57:52;37.22;;;17.10;;
44139;SDS011;29803;51.048;4.686;2024-01-07T02:00:25;32.33;;;16.10;;
44139;SDS011;29803;51.048;4.686;2024-01-07T02:02:55;37.55;;;16.65;;
44139;SDS011;29803;51.048;4.686;2024-01-07T02:05:26;36.83;;;16.70;;
44139;SDS011;29803;51.048;4.686;2024-01-07T02:07:57;37.72;;;16.77;;
44139;SDS011;29803;51.048;4.686;2024-01-07T02:10:41;34.45;;;16.85;;
44139;SDS011;29803;51.048;4.686;2024-01-07T02:13:12;46.92;;;19.98;;
44139;SDS011;29803;51.048;4.686;2024-01-07T02:15:43;42.03;;;19.55;;
44139;SDS011;29803;51.048;4.686;2024-01-07T02:18:32;46.45;;;20.77;;
44139;SDS011;29803;51.048;4.686;2024-01-07T02:21:04;43.53;;;19.40;;
44139;SDS011;29803;51.048;4.686;2024-01-07T02:23:54;43.13;;;20.00;;
44139;SDS011;29803;51.048;4.686;2024-01-07T02:26:38;46.63;;;20.23;;
44139;SDS011;29803;51.048;4.686;2024-01-07T02:29:08;44.50;;;20.85;;
44139;SDS011;29803;51.048;4.686;2024-01-07T02:31:39;43.35;;;19.63;;
44139;SDS011;29803;51.048;4.686;2024-01-07T02:34:10;47.63;;;20.38;;
44139;SDS011;29803;51.048;4.686;2024-01-07T02:36:41;47.58;;;19.05;;
44139;SDS011;29803;51.048;4.686;2024-01-07T02:39:12;54.15;;;19.15;;
44139;SDS011;29803;51.048;4.686;2024-01-07T02:41:42;54.38;;;20.42;;
44139;SDS011;29803;51.048;4.686;2024-01-07T02:44:13;48.22;;;19.23;;
44139;SDS011;29803;51.048;4.686;2024-01-07T02:46:43;51.13;;;19.88;;
44139;SDS011;29803;51.048;4.686;2024-01-07T02:49:16;53.17;;;19.40;;
44139;SDS011;29803;51.048;4.686;2024-01-07T02:51:46;48.47;;;20.58;;
44139;SDS011;29803;51.048;4.686;2024-01-07T02:54:19;49.35;;;20.05;;
44139;SDS011;29803;51.048;4.686;2024-01-07T02:56:50;47.92;;;21.50;;
44139;SDS011;29803;51.048;4.686;2024-01-07T02:59:20;51.13;;;19.75;;
44139;SDS011;29803;51.048;4.686;2024-01-07T03:01:51;53.50;;;21.88;;
44139;SDS011;29803;51.048;4.686;2024-01-07T03:04:21;49.45;;;20.42;;
44139;SDS011;29803;51.048;4.686;2024-01-07T03:06:52;48.22;;;19.75;;
44139;SDS011;29803;51.048;4.686;2024-01-07T03:09:22;51.65;;;20.00;;
44139;SDS011;29803;51.048;4.686;2024-01-07T03:11:53;49.75;;;20.02;;
44139;SDS011;29803;51.048;4.686;2024-01-07T03:14:24;47.10;;;19.60;;
44139;SDS011;29803;51.048;4.686;2024-01-07T03:16:55;51.10;;;20.67;;
44139;SDS011;29803;51.048;4.686;2024-01-07T03:19:25;50.78;;;19.48;;
44139;SDS011;29803;51.048;4.686;2024-01-07T03:21:56;51.65;;;20.60;;
44139;SDS011;29803;51.048;4.686;2024-01-07T03:24:27;46.50;;;20.45;;
44139;SDS011;29803;51.048;4.686;2024-01-07T03:26:57;48.75;;;19.85;;
44139;SDS011;29803;51.048;4.686;2024-01-07T03:29:27;50.40;;;20.15;;
44139;SDS011;29803;51.048;4.686;2024-01-07T03:31:58;48.80;;;20.30;;
44139;SDS011;29803;51.048;4.686;2024-01-07T03:34:29;52.95;;;21.27;;
44139;SDS011;29803;51.048;4.686;2024-01-07T03:36:59;50.97;;;20.70;;
44139;SDS011;29803;51.048;4.686;2024-01-07T03:39:32;55.08;;;21.52;;
44139;SDS011;29803;51.048;4.686;2024-01-07T03:42:03;53.42;;;20.95;;
44139;SDS011;29803;51.048;4.686;2024-01-07T03:44:36;50.45;;;20.02;;
44139;SDS011;29803;51.048;4.686;2024-01-07T03:47:06;53.95;;;21.33;;
44139;SDS011;29803;51.048;4.686;2024-01-07T03:49:37;54.25;;;20.75;;
44139;SDS011;29803;51.048;4.686;2024-01-07T03:52:07;50.30;;;19.85;;
44139;SDS011;29803;51.048;4.686;2024-01-07T03:54:39;53.20;;;21.15;;
44139;SDS011;29803;51.048;4.686;2024-01-07T03:57:09;47.80;;;20.05;;
44139;SDS011;29803;51.048;4.686;2024-01-07T03:59:39;52.67;;;20.73;;
44139;SDS011;29803;51.048;4.686;2024-01-07T04:02:10;52.83;;;21.38;;
44139;SDS011;29803;51.048;4.686;2024-01-07T04:04:42;50.78;;;19.60;;
44139;SDS011;29803;51.048;4.686;2024-01-07T04:07:12;50.88;;;20.48;;
44139;SDS011;29803;51.048;4.686;2024-01-07T04:09:43;52.55;;;20.60;;
44139;SDS011;29803;51.048;4.686;2024-01-07T04:12:14;51.60;;;20.88;;
44139;SDS011;29803;51.048;4.686;2024-01-07T04:14:45;52.47;;;21.70;;
44139;SDS011;29803;51.048;4.686;2024-01-07T04:17:15;49.20;;;19.85;;
44139;SDS011;29803;51.048;4.686;2024-01-07T04:19:46;54.13;;;22.42;;
44139;SDS011;29803;51.048;4.686;2024-01-07T04:22:16;51.53;;;20.98;;
44139;SDS011;29803;51.048;4.686;2024-01-07T04:24:47;54.65;;;22.02;;
44139;SDS011;29803;51.048;4.686;2024-01-07T04:27:18;52.25;;;21.77;;
44139;SDS011;29803;51.048;4.686;2024-01-07T04:29:48;52.65;;;21.10;;
44139;SDS011;29803;51.048;4.686;2024-01-07T04:32:19;54.95;;;21.60;;
44139;SDS011;29803;51.048;4.686;2024-01-07T04:34:50;58.20;;;23.58;;
44139;SDS011;29803;51.048;4.686;2024-01-07T04:37:20;56.95;;;21.98;;
44139;SDS011;29803;51.048;4.686;2024-01-07T04:39:51;52.83;;;21.45;;
44139;SDS011;29803;51.048;4.686;2024-01-07T04:42:21;54.45;;;21.25;;
44139;SDS011;29803;51.048;4.686;2024-01-07T04:44:52;54.20;;;22.42;;
44139;SDS011;29803;51.048;4.686;2024-01-07T04:47:29;58.58;;;22.95;;
44139;SDS011;29803;51.048;4.686;2024-01-07T04:50:02;53.58;;;20.92;;
44139;SDS011;29803;51.048;4.686;2024-01-07T04:52:33;57.30;;;22.50;;
44139;SDS011;29803;51.048;4.686;2024-01-07T04:55:04;64.22;;;23.75;;
44139;SDS011;29803;51.048;4.686;2024-01-07T04:57:35;59.30;;;24.75;;
44139;SDS011;29803;51.048;4.686;2024-01-07T05:00:05;61.88;;;23.70;;
44139;SDS011;29803;51.048;4.686;2024-01-07T05:02:36;59.45;;;22.92;;
44139;SDS011;29803;51.048;4.686;2024-01-07T05:05:08;60.40;;;24.77;;
44139;SDS011;29803;51.048;4.686;2024-01-07T05:07:39;60.60;;;23.67;;
44139;SDS011;29803;51.048;4.686;2024-01-07T05:10:09;55.75;;;21.85;;
44139;SDS011;29803;51.048;4.686;2024-01-07T05:12:40;55.60;;;23.17;;
44139;SDS011;29803;51.048;4.686;2024-01-07T05:15:11;65.13;;;23.27;;
44139;SDS011;29803;51.048;4.686;2024-01-07T05:17:41;66.85;;;23.67;;
44139;SDS011;29803;51.048;4.686;2024-01-07T05:20:12;72.65;;;23.63;;
44139;SDS011;29803;51.048;4.686;2024-01-07T05:22:45;55.50;;;22.77;;
44139;SDS011;29803;51.048;4.686;2024-01-07T05:25:16;61.42;;;23.42;;
44139;SDS011;29803;51.048;4.686;2024-01-07T05:27:46;63.72;;;22.90;;
44139;SDS011;29803;51.048;4.686;2024-01-07T05:30:17;65.78;;;24.02;;
44139;SDS011;29803;51.048;4.686;2024-01-07T05:32:47;57.65;;;21.85;;
44139;SDS011;29803;51.048;4.686;2024-01-07T05:35:18;64.00;;;23.98;;
44139;SDS011;29803;51.048;4.686;2024-01-07T05:37:49;61.47;;;20.83;;
44139;SDS011;29803;51.048;4.686;2024-01-07T05:40:19;60.70;;;21.10;;
44139;SDS011;29803;51.048;4.686;2024-01-07T05:42:49;66.05;;;22.52;;
44139;SDS011;29803;51.048;4.686;2024-01-07T05:45:21;60.60;;;21.13;;
44139;SDS011;29803;51.048;4.686;2024-01-07T05:47:52;68.43;;;22.15;;
44139;SDS011;29803;51.048;4.686;2024-01-07T05:50:22;66.90;;;22.67;;
44139;SDS011;29803;51.048;4.686;2024-01-07T05:52:52;62.60;;;21.92;;
44139;SDS011;29803;51.048;4.686;2024-01-07T05:55:23;60.03;;;21.55;;
44139;SDS011;29803;51.048;4.686;2024-01-07T05:57:53;61.08;;;22.30;;
44139;SDS011;29803;51.048;4.686;2024-01-07T06:00:24;64.88;;;23.38;;
44139;SDS011;29803;51.048;4.686;2024-01-07T06:02:54;71.30;;;24.05;;
44139;SDS011;29803;51.048;4.686;2024-01-07T06:05:25;75.55;;;24.33;;
44139;SDS011;29803;51.048;4.686;2024-01-07T06:07:55;74.32;;;25.13;;
44139;SDS011;29803;51.048;4.686;2024-01-07T06:10:26;75.50;;;23.75;;
44139;SDS011;29803;51.048;4.686;2024-01-07T06:12:56;79.68;;;27.23;;
44139;SDS011;29803;51.048;4.686;2024-01-07T06:15:27;76.00;;;25.27;;
44139;SDS011;29803;51.048;4.686;2024-01-07T06:17:57;74.88;;;25.13;;
44139;SDS011;29803;51.048;4.686;2024-01-07T06:20:28;83.00;;;28.70;;
44139;SDS011;29803;51.048;4.686;2024-01-07T06:22:58;74.93;;;26.95;;
44139;SDS011;29803;51.048;4.686;2024-01-07T06:25:29;77.68;;;26.45;;
44139;SDS011;29803;51.048;4.686;2024-01-07T06:27:59;84.78;;;28.20;;
44139;SDS011;29803;51.048;4.686;2024-01-07T06:30:30;79.47;;;26.50;;
44139;SDS011;29803;51.048;4.686;2024-01-07T06:33:00;81.07;;;26.50;;
44139;SDS011;29803;51.048;4.686;2024-01-07T06:35:31;72.25;;;25.58;;
44139;SDS011;29803;51.048;4.686;2024-01-07T06:38:01;76.03;;;26.05;;
44139;SDS011;29803;51.048;4.686;2024-01-07T06:40:32;77.57;;;25.73;;
44139;SDS011;29803;51.048;4.686;2024-01-07T06:43:03;81.80;;;24.88;;
44139;SDS011;29803;51.048;4.686;2024-01-07T06:45:33;73.97;;;24.17;;
44139;SDS011;29803;51.048;4.686;2024-01-07T06:48:04;79.13;;;25.35;;
44139;SDS011;29803;51.048;4.686;2024-01-07T06:50:35;76.25;;;25.52;;
44139;SDS011;29803;51.048;4.686;2024-01-07T06:53:05;77.57;;;26.48;;
44139;SDS011;29803;51.048;4.686;2024-01-07T06:55:36;81.72;;;26.95;;
44139;SDS011;29803;51.048;4.686;2024-01-07T06:58:07;75.30;;;28.20;;
44139;SDS011;29803;51.048;4.686;2024-01-07T07:00:37;89.13;;;29.27;;
44139;SDS011;29803;51.048;4.686;2024-01-07T07:03:08;80.90;;;27.77;;
44139;SDS011;29803;51.048;4.686;2024-01-07T07:05:38;75.88;;;26.13;;
44139;SDS011;29803;51.048;4.686;2024-01-07T07:08:09;75.38;;;26.45;;
44139;SDS011;29803;51.048;4.686;2024-01-07T07:10:39;69.38;;;23.10;;
44139;SDS011;29803;51.048;4.686;2024-01-07T07:13:11;73.68;;;24.70;;
44139;SDS011;29803;51.048;4.686;2024-01-07T07:15:42;71.40;;;23.30;;
44139;SDS011;29803;51.048;4.686;2024-01-07T07:18:12;92.82;;;29.08;;
44139;SDS011;29803;51.048;4.686;2024-01-07T07:20:43;83.70;;;28.42;;
44139;SDS011;29803;51.048;4.686;2024-01-07T07:23:13;91.97;;;28.55;;
44139;SDS011;29803;51.048;4.686;2024-01-07T07:25:44;85.40;;;29.40;;
44139;SDS011;29803;51.048;4.686;2024-01-07T07:28:14;77.57;;;27.65;;
44139;SDS011;29803;51.048;4.686;2024-01-07T07:30:47;67.95;;;24.33;;
44139;SDS011;29803;51.048;4.686;2024-01-07T07:33:17;68.88;;;23.33;;
44139;SDS011;29803;51.048;4.686;2024-01-07T07:35:48;74.05;;;23.55;;
44139;SDS011;29803;51.048;4.686;2024-01-07T07:38:19;71.15;;;24.02;;
44139;SDS011;29803;51.048;4.686;2024-01-07T07:40:49;61.33;;;22.80;;
44139;SDS011;29803;51.048;4.686;2024-01-07T07:43:22;65.50;;;22.58;;
44139;SDS011;29803;51.048;4.686;2024-01-07T07:45:53;59.53;;;21.65;;
44139;SDS011;29803;51.048;4.686;2024-01-07T07:48:24;63.55;;;21.45;;
44139;SDS011;29803;51.048;4.686;2024-01-07T07:50:56;61.88;;;21.30;;
44139;SDS011;29803;51.048;4.686;2024-01-07T07:53:26;57.60;;;21.42;;
44139;SDS011;29803;51.048;4.686;2024-01-07T07:55:57;58.85;;;20.75;;
44139;SDS011;29803;51.048;4.686;2024-01-07T07:58:27;52.92;;;20.45;;
44139;SDS011;29803;51.048;4.686;2024-01-07T08:00:58;53.35;;;19.95;;
44139;SDS011;29803;51.048;4.686;2024-01-07T08:03:28;51.08;;;20.42;;
44139;SDS011;29803;51.048;4.686;2024-01-07T08:05:59;50.28;;;19.83;;
44139;SDS011;29803;51.048;4.686;2024-01-07T08:08:29;50.67;;;19.25;;
44139;SDS011;29803;51.048;4.686;2024-01-07T08:11:00;47.83;;;19.30;;
44139;SDS011;29803;51.048;4.686;2024-01-07T08:13:31;42.75;;;18.92;;
44139;SDS011;29803;51.048;4.686;2024-01-07T08:16:01;43.55;;;18.55;;
44139;SDS011;29803;51.048;4.686;2024-01-07T08:18:32;45.50;;;17.23;;
44139;SDS011;29803;51.048;4.686;2024-01-07T08:21:03;43.33;;;18.33;;
44139;SDS011;29803;51.048;4.686;2024-01-07T08:23:33;40.70;;;17.35;;
44139;SDS011;29803;51.048;4.686;2024-01-07T08:26:04;52.28;;;19.65;;
44139;SDS011;29803;51.048;4.686;2024-01-07T08:28:34;39.35;;;17.52;;
44139;SDS011;29803;51.048;4.686;2024-01-07T08:31:05;46.00;;;18.85;;
44139;SDS011;29803;51.048;4.686;2024-01-07T08:33:37;46.80;;;19.08;;
44139;SDS011;29803;51.048;4.686;2024-01-07T08:36:07;43.53;;;18.80;;
44139;SDS011;29803;51.048;4.686;2024-01-07T08:38:39;50.55;;;19.88;;
44139;SDS011;29803;51.048;4.686;2024-01-07T08:41:09;44.33;;;18.95;;
44139;SDS011;29803;51.048;4.686;2024-01-07T08:43:39;46.45;;;19.30;;
44139;SDS011;29803;51.048;4.686;2024-01-07T08:46:10;44.83;;;18.42;;
44139;SDS011;29803;51.048;4.686;2024-01-07T08:48:43;42.80;;;19.02;;
44139;SDS011;29803;51.048;4.686;2024-01-07T08:51:15;42.58;;;19.25;;
44139;SDS011;29803;51.048;4.686;2024-01-07T08:53:45;47.17;;;20.67;;
44139;SDS011;29803;51.048;4.686;2024-01-07T08:56:17;49.13;;;20.50;;
44139;SDS011;29803;51.048;4.686;2024-01-07T08:58:48;50.22;;;20.40;;
44139;SDS011;29803;51.048;4.686;2024-01-07T09:01:19;49.55;;;19.85;;
44139;SDS011;29803;51.048;4.686;2024-01-07T09:03:49;44.33;;;18.27;;
44139;SDS011;29803;51.048;4.686;2024-01-07T09:06:20;42.58;;;19.88;;
44139;SDS011;29803;51.048;4.686;2024-01-07T09:08:50;50.83;;;20.88;;
44139;SDS011;29803;51.048;4.686;2024-01-07T09:11:21;49.50;;;20.85;;
44139;SDS011;29803;51.048;4.686;2024-01-07T09:13:51;49.20;;;21.17;;
44139;SDS011;29803;51.048;4.686;2024-01-07T09:16:22;52.85;;;20.63;;
44139;SDS011;29803;51.048;4.686;2024-01-07T09:18:53;48.78;;;22.00;;
44139;SDS011;29803;51.048;4.686;2024-01-07T09:21:23;52.15;;;21.70;;
44139;SDS011;29803;51.048;4.686;2024-01-07T09:23:54;49.60;;;20.92;;
44139;SDS011;29803;51.048;4.686;2024-01-07T09:26:24;52.25;;;22.15;;
44139;SDS011;29803;51.048;4.686;2024-01-07T09:28:55;54.75;;;21.88;;
44139;SDS011;29803;51.048;4.686;2024-01-07T09:31:27;49.75;;;21.42;;
44139;SDS011;29803;51.048;4.686;2024-01-07T09:33:57;49.45;;;20.48;;
44139;SDS011;29803;51.048;4.686;2024-01-07T09:36:29;60.53;;;23.02;;
44139;SDS011;29803;51.048;4.686;2024-01-07T09:39:00;54.22;;;22.15;;
44139;SDS011;29803;51.048;4.686;2024-01-07T09:41:31;49.85;;;21.73;;
44139;SDS011;29803;51.048;4.686;2024-01-07T09:44:03;59.72;;;23.90;;
44139;SDS011;29803;51.048;4.686;2024-01-07T09:46:35;53.97;;;22.70;;
44139;SDS011;29803;51.048;4.686;2024-01-07T09:49:07;49.00;;;22.63;;
44139;SDS011;29803;51.048;4.686;2024-01-07T09:51:37;52.78;;;23.77;;
44139;SDS011;29803;51.048;4.686;2024-01-07T09:54:10;51.03;;;22.02;;
44139;SDS011;29803;51.048;4.686;2024-01-07T09:56:50;49.03;;;23.02;;
44139;SDS011;29803;51.048;4.686;2024-01-07T09:59:26;51.47;;;21.65;;
44139;SDS011;29803;51.048;4.686;2024-01-07T10:01:59;45.25;;;20.90;;
44139;SDS011;29803;51.048;4.686;2024-01-07T10:04:30;49.20;;;22.05;;
44139;SDS011;29803;51.048;4.686;2024-01-07T10:07:01;45.80;;;20.88;;
44139;SDS011;29803;51.048;4.686;2024-01-07T10:09:33;47.47;;;21.55;;
44139;SDS011;29803;51.048;4.686;2024-01-07T10:12:04;46.92;;;20.98;;
44139;SDS011;29803;51.048;4.686;2024-01-07T10:14:36;42.00;;;20.00;;
44139;SDS011;29803;51.048;4.686;2024-01-07T10:17:14;42.38;;;17.77;;
44139;SDS011;29803;51.048;4.686;2024-01-07T10:19:46;38.70;;;17.45;;
44139;SDS011;29803;51.048;4.686;2024-01-07T10:22:17;39.53;;;17.00;;
44139;SDS011;29803;51.048;4.686;2024-01-07T10:24:47;43.53;;;16.77;;
44139;SDS011;29803;51.048;4.686;2024-01-07T10:27:22;31.02;;;14.52;;
44139;SDS011;29803;51.048;4.686;2024-01-07T10:29:54;35.40;;;14.80;;
44139;SDS011;29803;51.048;4.686;2024-01-07T10:32:28;36.13;;;16.00;;
44139;SDS011;29803;51.048;4.686;2024-01-07T10:35:03;34.50;;;15.43;;
44139;SDS011;29803;51.048;4.686;2024-01-07T10:37:35;38.38;;;16.58;;
44139;SDS011;29803;51.048;4.686;2024-01-07T10:40:06;40.17;;;16.95;;
44139;SDS011;29803;51.048;4.686;2024-01-07T10:42:37;34.67;;;15.10;;
44139;SDS011;29803;51.048;4.686;2024-01-07T10:45:09;33.45;;;13.70;;
44139;SDS011;29803;51.048;4.686;2024-01-07T10:47:40;36.88;;;14.65;;
44139;SDS011;29803;51.048;4.686;2024-01-07T10:50:17;31.08;;;15.07;;
44139;SDS011;29803;51.048;4.686;2024-01-07T10:52:49;39.45;;;16.90;;
44139;SDS011;29803;51.048;4.686;2024-01-07T10:55:21;37.65;;;15.88;;
44139;SDS011;29803;51.048;4.686;2024-01-07T10:57:54;38.33;;;17.33;;
44139;SDS011;29803;51.048;4.686;2024-01-07T11:00:27;39.20;;;16.73;;
44139;SDS011;29803;51.048;4.686;2024-01-07T11:03:06;38.85;;;15.35;;
44139;SDS011;29803;51.048;4.686;2024-01-07T11:05:50;36.95;;;15.63;;
44139;SDS011;29803;51.048;4.686;2024-01-07T11:10:59;34.58;;;15.75;;
44139;SDS011;29803;51.048;4.686;2024-01-07T11:13:37;37.08;;;15.48;;
44139;SDS011;29803;51.048;4.686;2024-01-07T11:16:09;37.70;;;15.27;;
44139;SDS011;29803;51.048;4.686;2024-01-07T11:18:40;35.47;;;15.65;;
44139;SDS011;29803;51.048;4.686;2024-01-07T11:21:22;34.55;;;15.48;;
44139;SDS011;29803;51.048;4.686;2024-01-07T11:23:54;34.45;;;14.90;;
44139;SDS011;29803;51.048;4.686;2024-01-07T11:26:28;32.15;;;14.77;;
44139;SDS011;29803;51.048;4.686;2024-01-07T11:29:00;35.85;;;14.75;;
44139;SDS011;29803;51.048;4.686;2024-01-07T11:34:10;34.75;;;14.95;;
44139;SDS011;29803;51.048;4.686;2024-01-07T11:36:41;35.80;;;15.15;;
44139;SDS011;29803;51.048;4.686;2024-01-07T11:39:11;33.58;;;14.50;;
44139;SDS011;29803;51.048;4.686;2024-01-07T11:41:42;37.30;;;15.27;;
44139;SDS011;29803;51.048;4.686;2024-01-07T11:44:12;31.13;;;15.38;;
44139;SDS011;29803;51.048;4.686;2024-01-07T11:46:46;31.08;;;13.27;;
44139;SDS011;29803;51.048;4.686;2024-01-07T11:49:17;33.92;;;14.25;;
44139;SDS011;29803;51.048;4.686;2024-01-07T11:51:48;26.98;;;12.70;;
44139;SDS011;29803;51.048;4.686;2024-01-07T11:54:18;31.05;;;13.30;;
44139;SDS011;29803;51.048;4.686;2024-01-07T11:56:49;27.50;;;13.90;;
44139;SDS011;29803;51.048;4.686;2024-01-07T11:59:19;33.08;;;14.70;;
44139;SDS011;29803;51.048;4.686;2024-01-07T12:01:50;28.27;;;14.32;;
44139;SDS011;29803;51.048;4.686;2024-01-07T12:04:21;28.92;;;13.13;;
44139;SDS011;29803;51.048;4.686;2024-01-07T12:06:51;28.30;;;14.35;;
44139;SDS011;29803;51.048;4.686;2024-01-07T12:09:22;31.35;;;14.38;;
44139;SDS011;29803;51.048;4.686;2024-01-07T12:11:53;28.27;;;14.52;;
44139;SDS011;29803;51.048;4.686;2024-01-07T12:14:24;29.08;;;14.52;;
44139;SDS011;29803;51.048;4.686;2024-01-07T12:16:55;28.88;;;13.88;;
44139;SDS011;29803;51.048;4.686;2024-01-07T12:19:27;30.85;;;14.60;;
44139;SDS011;29803;51.048;4.686;2024-01-07T12:22:01;29.60;;;13.95;;
44139;SDS011;29803;51.048;4.686;2024-01-07T12:24:33;27.05;;;13.90;;
44139;SDS011;29803;51.048;4.686;2024-01-07T12:27:05;30.55;;;14.50;;
44139;SDS011;29803;51.048;4.686;2024-01-07T12:29:36;34.17;;;14.25;;
44139;SDS011;29803;51.048;4.686;2024-01-07T12:32:07;27.70;;;13.90;;
44139;SDS011;29803;51.048;4.686;2024-01-07T12:34:39;31.48;;;14.73;;
44139;SDS011;29803;51.048;4.686;2024-01-07T12:37:13;33.05;;;14.13;;
44139;SDS011;29803;51.048;4.686;2024-01-07T12:39:43;33.50;;;14.18;;
44139;SDS011;29803;51.048;4.686;2024-01-07T12:42:14;29.65;;;14.75;;
44139;SDS011;29803;51.048;4.686;2024-01-07T12:44:45;30.98;;;14.55;;
44139;SDS011;29803;51.048;4.686;2024-01-07T12:47:16;27.23;;;13.02;;
44139;SDS011;29803;51.048;4.686;2024-01-07T12:49:47;31.50;;;13.60;;
44139;SDS011;29803;51.048;4.686;2024-01-07T12:52:17;30.08;;;12.98;;
44139;SDS011;29803;51.048;4.686;2024-01-07T12:54:48;28.25;;;13.35;;
44139;SDS011;29803;51.048;4.686;2024-01-07T12:57:19;29.73;;;13.30;;
44139;SDS011;29803;51.048;4.686;2024-01-07T12:59:50;26.52;;;12.80;;
44139;SDS011;29803;51.048;4.686;2024-01-07T13:02:20;27.63;;;12.55;;
44139;SDS011;29803;51.048;4.686;2024-01-07T13:04:51;26.60;;;12.13;;
44139;SDS011;29803;51.048;4.686;2024-01-07T13:07:22;25.60;;;12.27;;
44139;SDS011;29803;51.048;4.686;2024-01-07T13:09:53;27.27;;;13.02;;
44139;SDS011;29803;51.048;4.686;2024-01-07T13:12:24;23.65;;;12.23;;
44139;SDS011;29803;51.048;4.686;2024-01-07T13:14:56;25.85;;;12.88;;
44139;SDS011;29803;51.048;4.686;2024-01-07T13:17:27;35.72;;;14.35;;
44139;SDS011;29803;51.048;4.686;2024-01-07T13:19:57;23.02;;;11.10;;
44139;SDS011;29803;51.048;4.686;2024-01-07T13:22:28;24.40;;;12.40;;
44139;SDS011;29803;51.048;4.686;2024-01-07T13:25:00;21.95;;;11.90;;
44139;SDS011;29803;51.048;4.686;2024-01-07T13:27:30;26.35;;;12.90;;
44139;SDS011;29803;51.048;4.686;2024-01-07T13:30:01;25.80;;;13.93;;
44139;SDS011;29803;51.048;4.686;2024-01-07T13:32:32;22.90;;;12.43;;
44139;SDS011;29803;51.048;4.686;2024-01-07T13:35:06;29.42;;;13.20;;
44139;SDS011;29803;51.048;4.686;2024-01-07T13:37:40;25.75;;;13.38;;
44139;SDS011;29803;51.048;4.686;2024-01-07T13:40:12;23.60;;;13.13;;
44139;SDS011;29803;51.048;4.686;2024-01-07T13:42:44;23.92;;;12.77;;
44139;SDS011;29803;51.048;4.686;2024-01-07T13:45:14;24.42;;;13.23;;
44139;SDS011;29803;51.048;4.686;2024-01-07T13:47:46;25.65;;;13.02;;
44139;SDS011;29803;51.048;4.686;2024-01-07T13:50:17;28.60;;;13.45;;
44139;SDS011;29803;51.048;4.686;2024-01-07T13:52:48;25.02;;;13.38;;
44139;SDS011;29803;51.048;4.686;2024-01-07T13:55:18;29.15;;;14.43;;
44139;SDS011;29803;51.048;4.686;2024-01-07T13:57:49;29.25;;;13.70;;
44139;SDS011;29803;51.048;4.686;2024-01-07T14:00:20;29.35;;;13.65;;
44139;SDS011;29803;51.048;4.686;2024-01-07T14:02:51;30.90;;;13.80;;
44139;SDS011;29803;51.048;4.686;2024-01-07T14:05:21;30.17;;;14.15;;
44139;SDS011;29803;51.048;4.686;2024-01-07T14:07:52;32.70;;;13.68;;
44139;SDS011;29803;51.048;4.686;2024-01-07T14:10:22;27.40;;;13.02;;
44139;SDS011;29803;51.048;4.686;2024-01-07T14:12:53;27.08;;;13.70;;
44139;SDS011;29803;51.048;4.686;2024-01-07T14:15:23;26.58;;;13.43;;
44139;SDS011;29803;51.048;4.686;2024-01-07T14:17:54;29.52;;;14.18;;
44139;SDS011;29803;51.048;4.686;2024-01-07T14:20:25;31.00;;;13.68;;
44139;SDS011;29803;51.048;4.686;2024-01-07T14:22:55;28.98;;;13.52;;
44139;SDS011;29803;51.048;4.686;2024-01-07T14:25:26;30.60;;;13.52;;
44139;SDS011;29803;51.048;4.686;2024-01-07T14:27:56;28.60;;;13.68;;
44139;SDS011;29803;51.048;4.686;2024-01-07T14:30:27;29.52;;;12.82;;
44139;SDS011;29803;51.048;4.686;2024-01-07T14:32:58;22.50;;;11.85;;
44139;SDS011;29803;51.048;4.686;2024-01-07T14:35:28;24.33;;;12.15;;
44139;SDS011;29803;51.048;4.686;2024-01-07T14:38:00;26.17;;;12.05;;
44139;SDS011;29803;51.048;4.686;2024-01-07T14:40:31;24.00;;;12.15;;
44139;SDS011;29803;51.048;4.686;2024-01-07T14:43:01;21.10;;;11.30;;
44139;SDS011;29803;51.048;4.686;2024-01-07T14:45:32;27.33;;;13.68;;
44139;SDS011;29803;51.048;4.686;2024-01-07T14:48:02;21.30;;;11.57;;
44139;SDS011;29803;51.048;4.686;2024-01-07T14:50:33;25.63;;;13.80;;